Time;durP1;ratioP1;P1;durP2;ratioP2;P2;SDS_P1;SDS_P2;PMS_P1;PMS_P2;Temp;Humidity;BMP_temperature;BMP_pressure;BME280_temperature;BME280_humidity;BME280_pressure;Samples;Min_cycle;Max_cycle;Signal;HPM_P1;HPM_P2
2023/07/27 00:01:14;;;;;;;;;;;22.40;45.50;;;;;;1575978;75;761;-57
2023/07/27 00:03:16;;;;;;;;;;;22.40;45.50;;;;;;1572567;75;1938;-57
2023/07/27 00:05:18;;;;;;;;;;;22.30;45.50;;;;;;1572728;75;1123;-57
2023/07/27 00:07:20;;;;;;;;;;;22.40;46.00;;;;;;1575649;74;757;-59
2023/07/27 00:09:22;;;;;;;;;;;22.40;46.10;;;;;;1564823;74;1557;-57
2023/07/27 00:11:24;;;;;;;;;;;22.30;46.20;;;;;;1546060;75;1126;-57
2023/07/27 00:13:26;;;;;;;;;;;22.30;46.20;;;;;;1572325;75;685;-58
2023/07/27 00:15:28;;;;;;;;;;;22.30;46.10;;;;;;1571192;75;692;-58
2023/07/27 00:17:29;;;;;;;;;;;22.30;46.10;;;;;;1568000;75;761;-57
2023/07/27 00:19:31;;;;;;;;;;;22.30;46.20;;;;;;1578148;74;1131;-57
2023/07/27 00:21:33;;;;;;;;;;;22.30;46.10;;;;;;1575384;75;814;-57
2023/07/27 00:23:35;;;;;;;;;;;22.30;46.20;;;;;;1570857;75;1938;-57
2023/07/27 00:25:37;;;;;;;;;;;22.30;46.20;;;;;;1564968;75;774;-55
2023/07/27 00:27:39;;;;;;;;;;;22.40;46.20;;;;;;1575130;75;684;-58
2023/07/27 00:29:41;;;;;;;;;;;22.30;46.20;;;;;;1574035;74;1118;-59
2023/07/27 00:31:43;;;;;;;;;;;22.30;46.20;;;;;;1567846;75;778;-57
2023/07/27 00:33:45;;;;;;;;;;;22.40;46.20;;;;;;1563669;75;680;-58
2023/07/27 00:35:48;;;;;;;;;;;22.40;46.00;;;;;;1573332;75;713;-59
2023/07/27 00:37:50;;;;;;;;;;;22.40;46.00;;;;;;1569193;74;1728;-57
2023/07/27 00:39:52;;;;;;;;;;;22.40;46.00;;;;;;1567382;75;1183;-58
2023/07/27 00:41:54;;;;;;;;;;;22.30;45.90;;;;;;1574008;75;730;-55
2023/07/27 00:43:56;;;;;;;;;;;22.30;45.80;;;;;;1576100;75;1941;-57
2023/07/27 00:45:57;;;;;;;;;;;22.40;45.70;;;;;;1567833;75;727;-58
2023/07/27 00:47:59;;;;;;;;;;;22.40;45.70;;;;;;1575346;74;1144;-56
2023/07/27 00:50:01;;;;;;;;;;;22.40;45.60;;;;;;1564904;74;718;-58
2023/07/27 00:52:07;;;;;;;;;;;22.30;45.60;;;;;;1570632;74;1515;-57
2023/07/27 00:54:07;;;;;;;;;;;22.40;45.50;;;;;;1563049;75;1616;-58
2023/07/27 00:56:09;;;;;;;;;;;22.40;45.50;;;;;;1573314;75;794;-60
2023/07/27 00:58:11;;;;;;;;;;;22.40;45.60;;;;;;1574239;75;1129;-57
2023/07/27 01:00:14;;;;;;;;;;;22.30;45.60;;;;;;1569631;74;661;-57
2023/07/27 01:02:16;;;;;;;;;;;22.30;45.50;;;;;;1573929;74;696;-56
2023/07/27 01:04:18;;;;;;;;;;;22.40;45.50;;;;;;1573343;75;1946;-60
2023/07/27 01:06:19;;;;;;;;;;;22.40;45.50;;;;;;1567961;75;1676;-57
2023/07/27 01:08:21;;;;;;;;;;;22.40;45.40;;;;;;1568359;75;1118;-59
2023/07/27 01:10:24;;;;;;;;;;;22.40;45.50;;;;;;1566222;75;689;-57
2023/07/27 01:12:37;;;;;;;;;;;22.30;45.50;;;;;;1571613;74;686;-57
2023/07/27 01:14:40;;;;;;;;;;;22.30;45.50;;;;;;1570043;75;659;-55
2023/07/27 01:16:47;;;;;;;;;;;22.30;45.50;;;;;;1568584;75;719;-56
2023/07/27 01:18:53;;;;;;;;;;;22.30;45.60;;;;;;1568608;75;1890;-56
2023/07/27 01:20:57;;;;;;;;;;;22.30;45.60;;;;;;1573113;75;704;-58
2023/07/27 01:23:00;;;;;;;;;;;22.30;45.70;;;;;;1553591;75;1934;-58
2023/07/27 01:25:22;;;;;;;;;;;22.40;45.50;;;;;;1562274;75;706;-54
2023/07/27 01:27:25;;;;;;;;;;;22.40;45.60;;;;;;1562635;75;687;-58
2023/07/27 01:29:47;;;;;;;;;;;22.30;45.70;;;;;;1567169;74;1148;-59
2023/07/27 01:31:49;;;;;;;;;;;22.30;45.60;;;;;;1563068;75;1860;-59
2023/07/27 01:33:52;;;;;;;;;;;22.30;45.50;;;;;;1566571;75;741;-58
2023/07/27 01:35:56;;;;;;;;;;;22.40;45.40;;;;;;1570336;75;679;-58
2023/07/27 01:37:58;;;;;;;;;;;22.30;45.50;;;;;;1576308;74;1367;-59
2023/07/27 01:39:59;;;;;;;;;;;22.30;45.50;;;;;;1571937;75;747;-58
2023/07/27 01:42:01;;;;;;;;;;;22.40;45.40;;;;;;1574558;75;668;-55
2023/07/27 01:44:03;;;;;;;;;;;22.30;45.40;;;;;;1571376;75;1939;-54
2023/07/27 01:46:08;;;;;;;;;;;22.40;45.40;;;;;;1566202;75;689;-55
2023/07/27 01:48:10;;;;;;;;;;;22.30;45.50;;;;;;1573283;74;1195;-58
2023/07/27 01:50:12;;;;;;;;;;;22.30;45.40;;;;;;1575848;74;733;-55
2023/07/27 01:52:14;;;;;;;;;;;22.30;45.40;;;;;;1568695;75;700;-55
2023/07/27 01:54:16;;;;;;;;;;;23.00;45.60;;;;;;1559910;75;758;-57
2023/07/27 01:56:18;;;;;;;;;;;22.40;45.20;;;;;;1570038;75;820;-55
2023/07/27 01:58:20;;;;;;;;;;;22.30;45.20;;;;;;1569304;75;1138;-58
2023/07/27 02:00:22;;;;;;;;;;;22.30;45.30;;;;;;1573870;74;722;-55
2023/07/27 02:02:24;;;;;;;;;;;22.30;45.20;;;;;;1572337;75;717;-55
2023/07/27 02:04:26;;;;;;;;;;;22.40;45.10;;;;;;1575985;75;1922;-57
2023/07/27 02:06:28;;;;;;;;;;;22.30;45.10;;;;;;1572721;75;787;-58
2023/07/27 02:08:30;;;;;;;;;;;22.30;45.20;;;;;;1575022;74;1141;-57
2023/07/27 02:10:32;;;;;;;;;;;22.30;45.20;;;;;;1568988;75;704;-58
2023/07/27 02:12:35;;;;;;;;;;;22.30;45.20;;;;;;1565636;75;678;-56
2023/07/27 02:14:39;;;;;;;;;;;22.30;45.20;;;;;;1574406;75;647;-58
2023/07/27 02:16:42;;;;;;;;;;;22.30;45.20;;;;;;1575412;74;1696;-57
2023/07/27 02:18:44;;;;;;;;;;;22.40;45.20;;;;;;1573631;75;1132;-56
2023/07/27 02:20:47;;;;;;;;;;;22.30;45.20;;;;;;1569556;74;1504;-58
2023/07/27 02:22:49;;;;;;;;;;;22.30;45.20;;;;;;1570866;75;742;-58
2023/07/27 02:24:51;;;;;;;;;;;22.30;45.20;;;;;;1570722;75;1938;-57
2023/07/27 02:26:53;;;;;;;;;;;22.30;45.00;;;;;;1574314;75;648;-56
2023/07/27 02:28:56;;;;;;;;;;;22.30;45.20;;;;;;1567849;75;1184;-56
2023/07/27 02:30:58;;;;;;;;;;;22.30;45.10;;;;;;1575297;74;722;-57
2023/07/27 02:33:00;;;;;;;;;;;22.30;45.20;;;;;;1571546;75;669;-58
2023/07/27 02:35:02;;;;;;;;;;;22.20;45.10;;;;;;1570738;74;712;-57
2023/07/27 02:37:04;;;;;;;;;;;22.30;45.30;;;;;;1574454;75;788;-57
2023/07/27 02:39:06;;;;;;;;;;;22.30;45.30;;;;;;1566372;75;1173;-58
2023/07/27 02:41:09;;;;;;;;;;;22.30;45.30;;;;;;1571848;75;796;-59
2023/07/27 02:43:11;;;;;;;;;;;22.30;45.30;;;;;;1575566;74;1942;-59
2023/07/27 02:45:13;;;;;;;;;;;22.30;45.40;;;;;;1575957;75;685;-59
2023/07/27 02:47:15;;;;;;;;;;;22.30;45.40;;;;;;1575854;75;687;-59
2023/07/27 02:49:17;;;;;;;;;;;22.30;45.60;;;;;;1568520;75;1140;-57
2023/07/27 02:51:18;;;;;;;;;;;22.30;45.50;;;;;;1575601;74;670;-58
2023/07/27 02:53:20;;;;;;;;;;;22.30;45.00;;;;;;1575944;75;759;-58
2023/07/27 02:55:22;;;;;;;;;;;22.30;45.10;;;;;;1572261;75;767;-58
2023/07/27 02:57:24;;;;;;;;;;;22.30;44.80;;;;;;1558109;75;789;-60
2023/07/27 02:59:26;;;;;;;;;;;22.30;44.90;;;;;;1575559;74;1130;-60
2023/07/27 03:01:28;;;;;;;;;;;22.30;44.60;;;;;;1575790;75;790;-60
2023/07/27 03:03:30;;;;;;;;;;;22.40;44.30;;;;;;1574258;75;1923;-59
2023/07/27 03:05:32;;;;;;;;;;;22.30;45.30;;;;;;1573380;75;676;-59
2023/07/27 03:07:34;;;;;;;;;;;22.30;45.50;;;;;;1573441;75;700;-57
2023/07/27 03:09:35;;;;;;;;;;;22.40;45.50;;;;;;1573270;74;1130;-57
2023/07/27 03:11:37;;;;;;;;;;;22.30;45.40;;;;;;1575886;75;676;-59
2023/07/27 03:13:39;;;;;;;;;;;22.30;45.50;;;;;;1561563;75;666;-60
2023/07/27 03:15:41;;;;;;;;;;;22.30;45.50;;;;;;1570060;75;1585;-57
2023/07/27 03:17:43;;;;;;;;;;;22.40;45.50;;;;;;1567570;75;718;-58
2023/07/27 03:19:45;;;;;;;;;;;22.20;45.30;;;;;;1569629;74;1047;-58
2023/07/27 03:21:48;;;;;;;;;;;22.30;45.40;;;;;;1573395;74;690;-57
2023/07/27 03:23:50;;;;;;;;;;;22.30;45.30;;;;;;1565793;75;1910;-60
2023/07/27 03:25:52;;;;;;;;;;;22.20;45.20;;;;;;1569471;74;677;-57
2023/07/27 03:27:54;;;;;;;;;;;22.30;45.30;;;;;;1574930;75;704;-59
2023/07/27 03:29:56;;;;;;;;;;;22.30;45.20;;;;;;1575095;74;677;-57
2023/07/27 03:31:58;;;;;;;;;;;22.30;45.10;;;;;;1570552;75;752;-57
2023/07/27 03:34:00;;;;;;;;;;;22.30;44.80;;;;;;1575113;75;740;-57
2023/07/27 03:36:02;;;;;;;;;;;22.30;44.70;;;;;;1562812;75;718;-58
2023/07/27 03:38:03;;;;;;;;;;;22.30;44.70;;;;;;1569868;74;1157;-58
2023/07/27 03:40:06;;;;;;;;;;;22.40;44.70;;;;;;1571908;75;810;-59
2023/07/27 03:42:08;;;;;;;;;;;22.30;44.90;;;;;;1568689;75;682;-58
2023/07/27 03:44:14;;;;;;;;;;;22.30;44.90;;;;;;1575076;75;1937;-59
2023/07/27 03:46:13;;;;;;;;;;;22.40;44.30;;;;;;1574499;74;1903;-59
2023/07/27 03:48:15;;;;;;;;;;;22.30;44.60;;;;;;1569409;75;1139;-58
2023/07/27 03:50:17;;;;;;;;;;;22.40;44.70;;;;;;1574640;74;660;-58
2023/07/27 03:52:19;;;;;;;;;;;22.30;44.80;;;;;;1561085;74;661;-57
2023/07/27 03:54:21;;;;;;;;;;;22.30;44.70;;;;;;1569523;75;829;-59
2023/07/27 03:56:22;;;;;;;;;;;22.40;44.20;;;;;;1559329;75;745;-57
2023/07/27 03:58:24;;;;;;;;;;;22.30;44.40;;;;;;1559119;75;1106;-58
2023/07/27 04:00:26;;;;;;;;;;;22.30;44.30;;;;;;1571596;74;764;-57
2023/07/27 04:02:28;;;;;;;;;;;22.30;44.40;;;;;;1565210;75;701;-60
2023/07/27 04:04:30;;;;;;;;;;;22.40;44.80;;;;;;1570398;75;1947;-58
2023/07/27 04:06:32;;;;;;;;;;;22.30;44.70;;;;;;1562661;75;716;-58
2023/07/27 04:08:34;;;;;;;;;;;22.30;44.80;;;;;;1569744;75;1144;-59
2023/07/27 04:10:35;;;;;;;;;;;22.30;44.20;;;;;;1569385;74;745;-58
2023/07/27 04:12:37;;;;;;;;;;;22.40;44.20;;;;;;1572549;75;1507;-59
2023/07/27 04:14:39;;;;;;;;;;;22.30;44.40;;;;;;1571725;75;659;-59
2023/07/27 04:16:41;;;;;;;;;;;22.30;44.70;;;;;;1564090;75;783;-58
2023/07/27 04:18:43;;;;;;;;;;;22.30;44.70;;;;;;1573157;75;1145;-59
2023/07/27 04:20:45;;;;;;;;;;;22.30;44.90;;;;;;1570966;74;670;-58
2023/07/27 04:22:47;;;;;;;;;;;22.40;44.70;;;;;;1571592;75;757;-59
2023/07/27 04:24:49;;;;;;;;;;;22.30;44.70;;;;;;1575719;75;1938;-58
2023/07/27 04:26:51;;;;;;;;;;;22.30;44.40;;;;;;1561452;75;785;-56
2023/07/27 04:28:53;;;;;;;;;;;22.40;44.50;;;;;;1572416;74;1112;-59
2023/07/27 04:30:55;;;;;;;;;;;22.30;44.40;;;;;;1569063;75;690;-58
2023/07/27 04:32:57;;;;;;;;;;;22.30;44.30;;;;;;1575030;75;720;-57
2023/07/27 04:34:59;;;;;;;;;;;22.30;44.40;;;;;;1571205;75;722;-58
2023/07/27 04:37:01;;;;;;;;;;;22.30;44.70;;;;;;1571891;74;844;-57
2023/07/27 04:39:02;;;;;;;;;;;22.30;45.00;;;;;;1565990;75;1122;-56
2023/07/27 04:41:04;;;;;;;;;;;22.30;45.10;;;;;;1572826;75;718;-55
2023/07/27 04:43:06;;;;;;;;;;;22.30;45.00;;;;;;1568464;75;712;-55
2023/07/27 04:45:08;;;;;;;;;;;22.30;44.80;;;;;;1566494;75;1974;-58
2023/07/27 04:47:10;;;;;;;;;;;22.30;44.90;;;;;;1570774;74;721;-56
2023/07/27 04:49:12;;;;;;;;;;;22.40;44.90;;;;;;1574096;75;1133;-57
2023/07/27 04:51:14;;;;;;;;;;;22.30;44.70;;;;;;1572256;75;670;-57
2023/07/27 04:53:16;;;;;;;;;;;22.30;44.20;;;;;;1572513;75;700;-58
2023/07/27 04:55:18;;;;;;;;;;;22.30;45.20;;;;;;1575057;75;671;-58
2023/07/27 04:57:20;;;;;;;;;;;22.30;45.30;;;;;;1565100;75;696;-58
2023/07/27 04:59:21;;;;;;;;;;;22.30;45.20;;;;;;1574675;74;1223;-57
2023/07/27 05:01:23;;;;;;;;;;;22.40;45.20;;;;;;1571342;75;689;-57
2023/07/27 05:03:25;;;;;;;;;;;22.30;45.20;;;;;;1575902;75;693;-58
2023/07/27 05:05:27;;;;;;;;;;;22.40;45.20;;;;;;1563861;75;1947;-57
2023/07/27 05:07:29;;;;;;;;;;;22.30;45.30;;;;;;1575596;74;782;-57
2023/07/27 05:09:31;;;;;;;;;;;22.30;45.40;;;;;;1574600;75;1657;-56
2023/07/27 05:11:33;;;;;;;;;;;22.30;45.50;;;;;;1569375;75;755;-57
2023/07/27 05:13:35;;;;;;;;;;;22.30;45.50;;;;;;1574983;75;754;-56
2023/07/27 05:15:38;;;;;;;;;;;22.30;45.50;;;;;;1573120;74;732;-58
2023/07/27 05:17:40;;;;;;;;;;;22.40;45.50;;;;;;1569196;75;745;-56
2023/07/27 05:19:42;;;;;;;;;;;22.40;45.40;;;;;;1573833;74;1104;-57
2023/07/27 05:21:44;;;;;;;;;;;22.30;44.80;;;;;;1572851;74;665;-57
2023/07/27 05:23:46;;;;;;;;;;;22.30;44.50;;;;;;1555800;75;732;-56
2023/07/27 05:25:48;;;;;;;;;;;22.30;44.20;;;;;;1568923;75;1924;-58
2023/07/27 05:27:49;;;;;;;;;;;22.30;44.30;;;;;;1561224;75;648;-58
2023/07/27 05:29:51;;;;;;;;;;;22.20;44.10;;;;;;1569666;74;1067;-58
2023/07/27 05:31:53;;;;;;;;;;;22.20;44.00;;;;;;1572883;75;685;-59
2023/07/27 05:33:55;;;;;;;;;;;22.10;44.00;;;;;;1572121;75;784;-58
2023/07/27 05:35:57;;;;;;;;;;;22.10;43.90;;;;;;1559655;75;702;-58
2023/07/27 05:37:59;;;;;;;;;;;22.10;44.10;;;;;;1575801;75;1140;-58
2023/07/27 05:40:01;;;;;;;;;;;22.10;43.90;;;;;;1571716;75;737;-59
2023/07/27 05:42:02;;;;;;;;;;;22.00;43.90;;;;;;1566882;75;1116;-57
2023/07/27 05:44:04;;;;;;;;;;;22.00;43.90;;;;;;1571402;75;1292;-57
2023/07/27 05:46:06;;;;;;;;;;;22.00;44.10;;;;;;1563395;75;1259;-57
2023/07/27 05:48:08;;;;;;;;;;;22.00;44.20;;;;;;1570831;75;1315;-57
2023/07/27 05:50:11;;;;;;;;;;;22.00;44.20;;;;;;1575490;74;1387;-58
2023/07/27 05:52:13;;;;;;;;;;;21.90;44.30;;;;;;1575794;74;1124;-58
2023/07/27 05:54:15;;;;;;;;;;;21.90;44.30;;;;;;1567540;75;1797;-58
2023/07/27 05:56:16;;;;;;;;;;;21.90;44.40;;;;;;1568713;75;1350;-59
2023/07/27 05:58:18;;;;;;;;;;;21.90;44.60;;;;;;1573313;75;1337;-58
2023/07/27 06:00:20;;;;;;;;;;;21.90;44.70;;;;;;1570646;75;1313;-55
2023/07/27 06:02:22;;;;;;;;;;;21.90;44.70;;;;;;1573494;75;1342;-57
2023/07/27 06:04:26;;;;;;;;;;;21.80;44.70;;;;;;1571044;75;1926;-58
2023/07/27 06:06:27;;;;;;;;;;;21.90;45.00;;;;;;1564105;75;1652;-57
2023/07/27 06:08:29;;;;;;;;;;;21.80;44.90;;;;;;1574774;75;1516;-57
2023/07/27 06:10:31;;;;;;;;;;;21.90;45.10;;;;;;1572425;75;1381;-56
2023/07/27 06:12:33;;;;;;;;;;;21.80;45.10;;;;;;1574148;75;1395;-54
2023/07/27 06:14:35;;;;;;;;;;;21.80;44.90;;;;;;1560988;75;1341;-54
2023/07/27 06:16:37;;;;;;;;;;;21.80;45.00;;;;;;1571033;75;1542;-58
2023/07/27 06:18:39;;;;;;;;;;;21.70;45.00;;;;;;1574581;74;1502;-57
2023/07/27 06:20:41;;;;;;;;;;;21.70;45.10;;;;;;1571495;74;1275;-57
2023/07/27 06:22:43;;;;;;;;;;;21.80;45.20;;;;;;1573584;75;1489;-58
2023/07/27 06:24:45;;;;;;;;;;;21.70;45.20;;;;;;1566469;75;1955;-55
2023/07/27 06:26:47;;;;;;;;;;;21.80;45.20;;;;;;1569532;75;1092;-59
2023/07/27 06:28:48;;;;;;;;;;;21.80;45.20;;;;;;1574518;74;1449;-56
2023/07/27 06:30:51;;;;;;;;;;;21.80;45.20;;;;;;1568966;75;1344;-55
2023/07/27 06:32:53;;;;;;;;;;;21.80;45.20;;;;;;1563549;75;1481;-56
2023/07/27 06:34:55;;;;;;;;;;;21.80;45.30;;;;;;1560674;75;1356;-55
2023/07/27 06:36:57;;;;;;;;;;;21.70;45.30;;;;;;1565774;75;1475;-56
2023/07/27 06:38:59;;;;;;;;;;;21.70;45.20;;;;;;1572720;74;1210;-57
2023/07/27 06:41:01;;;;;;;;;;;21.70;45.10;;;;;;1572898;75;1517;-55
2023/07/27 06:43:02;;;;;;;;;;;21.70;45.00;;;;;;1569004;75;1484;-58
2023/07/27 06:45:05;;;;;;;;;;;21.70;45.00;;;;;;1559378;75;1928;-55
2023/07/27 06:47:06;;;;;;;;;;;21.70;44.90;;;;;;1567620;75;1524;-57
2023/07/27 06:49:10;;;;;;;;;;;21.80;44.90;;;;;;1572389;74;1359;-56
2023/07/27 06:51:12;;;;;;;;;;;21.80;45.00;;;;;;1574136;74;1219;-56
2023/07/27 06:53:14;;;;;;;;;;;21.80;45.00;;;;;;1567100;75;1489;-56
2023/07/27 06:55:17;;;;;;;;;;;21.80;44.80;;;;;;1569701;74;1488;-55
2023/07/27 06:57:19;;;;;;;;;;;21.80;44.70;;;;;;1574672;75;1401;-58
2023/07/27 06:59:22;;;;;;;;;;;21.80;44.60;;;;;;1575729;75;1136;-58
2023/07/27 07:01:24;;;;;;;;;;;21.80;44.40;;;;;;1568064;75;1542;-58
2023/07/27 07:03:26;;;;;;;;;;;21.80;44.30;;;;;;1571966;75;1408;-56
2023/07/27 07:05:28;;;;;;;;;;;21.80;44.30;;;;;;1570750;75;1938;-58
2023/07/27 07:07:30;;;;;;;;;;;21.80;44.40;;;;;;1571111;75;1295;-60
2023/07/27 07:09:35;;;;;;;;;;;21.90;44.50;;;;;;1571535;74;1521;-58
2023/07/27 07:11:36;;;;;;;;;;;21.90;44.50;;;;;;1569952;75;1669;-57
2023/07/27 07:13:37;;;;;;;;;;;21.90;44.40;;;;;;1573380;75;1480;-54
2023/07/27 07:15:39;;;;;;;;;;;21.90;44.30;;;;;;1574122;75;1459;-60
2023/07/27 07:17:41;;;;;;;;;;;21.90;44.40;;;;;;1575758;74;1409;-58
2023/07/27 07:19:43;;;;;;;;;;;21.90;44.20;;;;;;1561602;74;1530;-58
2023/07/27 07:21:45;;;;;;;;;;;21.80;44.00;;;;;;1574477;74;1296;-57
2023/07/27 07:23:47;;;;;;;;;;;21.90;44.00;;;;;;1571504;75;1491;-56
2023/07/27 07:25:49;;;;;;;;;;;21.90;44.10;;;;;;1568100;75;1946;-58
2023/07/27 07:27:51;;;;;;;;;;;21.90;44.20;;;;;;1575174;74;1369;-59
2023/07/27 07:29:52;;;;;;;;;;;21.90;44.20;;;;;;1566636;75;1588;-57
2023/07/27 07:31:54;;;;;;;;;;;21.90;44.40;;;;;;1570716;74;1143;-58
2023/07/27 07:33:56;;;;;;;;;;;21.90;44.40;;;;;;1572789;75;1518;-60
2023/07/27 07:35:58;;;;;;;;;;;21.90;44.50;;;;;;1573488;75;1285;-59
2023/07/27 07:38:00;;;;;;;;;;;21.90;44.60;;;;;;1570004;75;1334;-59
2023/07/27 07:40:02;;;;;;;;;;;21.90;44.60;;;;;;1568550;75;1337;-61
2023/07/27 07:42:04;;;;;;;;;;;21.90;44.60;;;;;;1572484;75;1470;-57
2023/07/27 07:44:06;;;;;;;;;;;22.00;44.50;;;;;;1573570;75;1634;-60
2023/07/27 07:46:11;;;;;;;;;;;21.90;44.60;;;;;;1570871;75;1942;-57
2023/07/27 07:48:13;;;;;;;;;;;22.00;44.70;;;;;;1571441;74;1331;-57
2023/07/27 07:50:15;;;;;;;;;;;22.00;44.70;;;;;;1575491;74;1359;-59
2023/07/27 07:52:17;;;;;;;;;;;22.00;44.60;;;;;;1569975;74;1485;-59
2023/07/27 07:54:19;;;;;;;;;;;22.00;44.60;;;;;;1571591;75;1362;-58
2023/07/27 07:56:21;;;;;;;;;;;22.00;44.60;;;;;;1574200;75;1399;-58
2023/07/27 07:58:23;;;;;;;;;;;22.00;44.70;;;;;;1572175;75;1165;-57
2023/07/27 08:00:24;;;;;;;;;;;22.10;44.90;;;;;;1573614;74;1297;-58
2023/07/27 08:02:26;;;;;;;;;;;22.10;44.90;;;;;;1569956;75;1249;-59
2023/07/27 08:04:30;;;;;;;;;;;22.00;44.80;;;;;;1575279;75;1156;-58
2023/07/27 08:06:32;;;;;;;;;;;22.00;44.70;;;;;;1570555;75;1983;-57
2023/07/27 08:08:35;;;;;;;;;;;22.00;44.70;;;;;;1569535;75;1563;-58
2023/07/27 08:10:36;;;;;;;;;;;22.10;44.80;;;;;;1565907;74;1289;-59
2023/07/27 08:12:38;;;;;;;;;;;22.10;44.90;;;;;;1568503;75;1360;-59
2023/07/27 08:14:40;;;;;;;;;;;22.10;45.00;;;;;;1567084;75;1427;-57
2023/07/27 08:16:42;;;;;;;;;;;22.10;45.00;;;;;;1571307;75;1293;-55
2023/07/27 08:18:44;;;;;;;;;;;22.10;45.00;;;;;;1572011;74;1311;-57
2023/07/27 08:20:48;;;;;;;;;;;22.10;45.00;;;;;;1570933;74;1506;-60
2023/07/27 08:22:50;;;;;;;;;;;22.10;45.00;;;;;;1569066;75;1820;-58
2023/07/27 08:24:51;;;;;;;;;;;22.10;45.00;;;;;;1570563;75;1429;-59
2023/07/27 08:26:54;;;;;;;;;;;22.10;44.90;;;;;;1567801;75;1934;-58
2023/07/27 08:28:57;;;;;;;;;;;22.10;44.70;;;;;;1570632;75;1513;-59
2023/07/27 08:30:58;;;;;;;;;;;22.20;44.70;;;;;;1565141;74;1340;-59
2023/07/27 08:33:00;;;;;;;;;;;22.20;44.60;;;;;;1565850;75;1357;-57
2023/07/27 08:35:02;;;;;;;;;;;22.20;44.70;;;;;;1568540;75;1486;-59
2023/07/27 08:37:05;;;;;;;;;;;22.20;44.60;;;;;;1573558;75;1295;-62
2023/07/27 08:39:07;;;;;;;;;;;22.10;44.50;;;;;;1567379;74;1416;-59
2023/07/27 08:41:09;;;;;;;;;;;22.30;44.70;;;;;;1562480;75;1163;-60
2023/07/27 08:43:11;;;;;;;;;;;22.30;44.70;;;;;;1570568;75;1412;-59
2023/07/27 08:45:14;;;;;;;;;;;22.20;44.60;;;;;;1571627;75;1949;-60
2023/07/27 08:47:16;;;;;;;;;;;22.20;44.60;;;;;;1571212;75;1652;-57
2023/07/27 08:49:18;;;;;;;;;;;22.30;44.70;;;;;;1574704;74;1368;-57
2023/07/27 08:51:20;;;;;;;;;;;22.30;44.70;;;;;;1570385;75;1478;-58
2023/07/27 08:53:22;;;;;;;;;;;22.20;44.60;;;;;;1566841;75;1493;-59
2023/07/27 08:55:24;;;;;;;;;;;22.30;44.70;;;;;;1572637;75;1322;-56
2023/07/27 08:57:26;;;;;;;;;;;22.30;44.70;;;;;;1571126;75;1506;-57
2023/07/27 08:59:28;;;;;;;;;;;22.30;44.60;;;;;;1570225;74;1168;-56
2023/07/27 09:01:31;;;;;;;;;;;22.20;44.50;;;;;;1567719;75;1458;-56
2023/07/27 09:03:33;;;;;;;;;;;22.30;44.80;;;;;;1567280;75;1454;-57
2023/07/27 09:05:38;;;;;;;;;;;22.30;44.80;;;;;;1572502;75;1940;-58
2023/07/27 09:07:40;;;;;;;;;;;22.30;44.90;;;;;;1563976;74;1335;-56
2023/07/27 09:09:42;;;;;;;;;;;22.20;44.90;;;;;;1564977;75;1520;-55
2023/07/27 09:11:44;;;;;;;;;;;22.20;45.00;;;;;;1568750;75;1210;-58
2023/07/27 09:13:46;;;;;;;;;;;22.30;45.10;;;;;;1570271;75;1217;-57
2023/07/27 09:15:50;;;;;;;;;;;22.30;45.10;;;;;;1572382;74;1079;-56
2023/07/27 09:17:52;;;;;;;;;;;22.30;45.20;;;;;;1571735;75;1778;-55
2023/07/27 09:19:55;;;;;;;;;;;22.30;45.30;;;;;;1570221;75;1457;-58
2023/07/27 09:21:57;;;;;;;;;;;22.30;45.20;;;;;;1569538;74;1299;-57
2023/07/27 09:23:59;;;;;;;;;;;22.30;45.30;;;;;;1541403;75;1358;-57
2023/07/27 09:26:01;;;;;;;;;;;22.30;45.30;;;;;;1567597;75;1938;-58
2023/07/27 09:28:03;;;;;;;;;;;22.30;45.30;;;;;;1563684;75;1365;-57
2023/07/27 09:30:05;;;;;;;;;;;22.30;45.20;;;;;;1567249;74;1323;-57
2023/07/27 09:32:08;;;;;;;;;;;22.20;45.20;;;;;;1561874;75;1359;-58
2023/07/27 09:34:10;;;;;;;;;;;22.30;45.40;;;;;;1571210;75;1295;-58
2023/07/27 09:36:12;;;;;;;;;;;22.20;45.40;;;;;;1571516;75;1345;-58
2023/07/27 09:38:14;;;;;;;;;;;22.30;45.50;;;;;;1575144;74;1508;-57
2023/07/27 09:40:20;;;;;;;;;;;22.30;45.60;;;;;;1574250;75;1285;-58
2023/07/27 09:42:22;;;;;;;;;;;22.40;45.50;;;;;;1567312;75;1510;-58
2023/07/27 09:44:24;;;;;;;;;;;22.30;45.50;;;;;;1572771;75;1318;-57
2023/07/27 09:46:26;;;;;;;;;;;22.30;45.10;;;;;;1573077;75;1930;-56
2023/07/27 09:48:28;;;;;;;;;;;22.40;44.90;;;;;;1565552;74;1149;-61
2023/07/27 09:50:30;;;;;;;;;;;22.40;44.70;;;;;;1567345;74;1573;-60
2023/07/27 09:52:32;;;;;;;;;;;22.30;44.70;;;;;;1564194;75;1298;-60
2023/07/27 09:54:34;;;;;;;;;;;22.40;44.70;;;;;;1572763;75;1310;-57
2023/07/27 09:56:36;;;;;;;;;;;22.30;44.80;;;;;;1569930;75;1415;-58
2023/07/27 09:58:39;;;;;;;;;;;22.30;44.70;;;;;;1572538;74;1304;-56
2023/07/27 10:00:41;;;;;;;;;;;22.30;44.70;;;;;;1558658;75;1300;-58
2023/07/27 10:02:43;;;;;;;;;;;22.30;44.90;;;;;;1569909;75;1277;-60
2023/07/27 10:04:55;;;;;;;;;;;22.30;45.80;;;;;;1569987;75;1420;-60
2023/07/27 10:06:49;;;;;;;;;;;22.40;45.20;;;;;;1567132;75;1927;-59
2023/07/27 10:08:51;;;;;;;;;;;22.40;45.20;;;;;;1573981;74;1379;-56
2023/07/27 10:10:53;;;;;;;;;;;22.40;45.20;;;;;;1571821;75;1336;-56
2023/07/27 10:12:56;;;;;;;;;;;22.30;45.40;;;;;;1565923;75;1347;-56
2023/07/27 10:15:16;;;;;;;;;;;22.30;45.30;;;;;;1571147;75;1510;-58
2023/07/27 10:17:18;;;;;;;;;;;22.30;44.70;;;;;;1565740;74;1401;-56
2023/07/27 10:19:21;;;;;;;;;;;22.30;44.50;;;;;;1572514;74;1491;-57
2023/07/27 10:21:26;;;;;;;;;;;22.30;44.70;;;;;;1569064;74;1519;-56
2023/07/27 10:23:29;;;;;;;;;;;22.40;44.80;;;;;;1573121;75;1329;-58
2023/07/27 10:25:32;;;;;;;;;;;22.40;44.80;;;;;;1571310;75;1469;-58
2023/07/27 10:27:36;;;;;;;;;;;22.40;44.80;;;;;;1553483;75;1936;-55
2023/07/27 10:29:37;;;;;;;;;;;22.40;44.50;;;;;;1568186;75;1790;-55
2023/07/27 10:31:39;;;;;;;;;;;22.40;44.70;;;;;;1570148;74;1485;-57
2023/07/27 10:33:47;;;;;;;;;;;22.40;44.80;;;;;;1570717;74;1316;-58
2023/07/27 10:36:03;;;;;;;;;;;22.30;44.80;;;;;;1573123;75;1405;-58
2023/07/27 10:38:05;;;;;;;;;;;22.40;45.00;;;;;;1568190;75;1487;-58
2023/07/27 10:40:07;;;;;;;;;;;22.40;45.00;;;;;;1572946;74;1362;-56
2023/07/27 10:42:12;;;;;;;;;;;22.40;45.10;;;;;;1543684;75;1469;-54
2023/07/27 10:44:17;;;;;;;;;;;22.40;45.00;;;;;;1576003;75;1319;-57
2023/07/27 10:46:22;;;;;;;;;;;22.40;44.90;;;;;;1574598;75;1922;-58
2023/07/27 10:48:24;;;;;;;;;;;22.40;44.80;;;;;;1574608;74;1493;-56
2023/07/27 10:50:25;;;;;;;;;;;22.40;44.80;;;;;;1572560;74;1306;-56
2023/07/27 10:52:32;;;;;;;;;;;22.40;44.70;;;;;;1573911;75;1543;-54
2023/07/27 10:54:35;;;;;;;;;;;22.40;44.60;;;;;;1570134;75;1815;-58
2023/07/27 10:56:37;;;;;;;;;;;22.40;44.70;;;;;;1567848;75;1959;-56
2023/07/27 10:58:39;;;;;;;;;;;22.40;44.60;;;;;;1575341;75;1463;-57
2023/07/27 11:00:41;;;;;;;;;;;22.40;44.50;;;;;;1566710;74;1536;-56
2023/07/27 11:02:43;;;;;;;;;;;22.50;44.70;;;;;;1550088;75;1346;-56
2023/07/27 11:04:45;;;;;;;;;;;22.50;44.70;;;;;;1573074;75;1284;-56
2023/07/27 11:06:47;;;;;;;;;;;22.40;44.50;;;;;;1569856;75;1938;-55
2023/07/27 11:08:49;;;;;;;;;;;22.50;44.30;;;;;;1570669;74;1273;-58
2023/07/27 11:10:50;;;;;;;;;;;22.50;44.10;;;;;;1573643;75;1251;-57
2023/07/27 11:12:54;;;;;;;;;;;22.50;44.20;;;;;;1574314;75;1179;-55
2023/07/27 11:14:56;;;;;;;;;;;22.40;44.20;;;;;;1572012;75;1472;-58
2023/07/27 11:16:58;;;;;;;;;;;22.40;44.20;;;;;;1566232;74;1506;-58
2023/07/27 11:19:03;;;;;;;;;;;22.50;44.30;;;;;;1573345;75;1319;-55
2023/07/27 11:21:03;;;;;;;;;;;22.50;44.20;;;;;;1573909;74;1609;-55
2023/07/27 11:23:05;;;;;;;;;;;22.40;44.10;;;;;;1565207;75;1298;-57
2023/07/27 11:25:08;;;;;;;;;;;22.40;44.10;;;;;;1572522;75;1114;-56
2023/07/27 11:27:12;;;;;;;;;;;22.50;44.20;;;;;;1569778;75;1914;-54
2023/07/27 11:29:14;;;;;;;;;;;22.50;44.30;;;;;;1570384;74;1294;-57
2023/07/27 11:31:17;;;;;;;;;;;22.50;44.30;;;;;;1568960;75;1322;-58
2023/07/27 11:33:29;;;;;;;;;;;22.50;44.30;;;;;;1570139;75;1354;-55
2023/07/27 11:35:23;;;;;;;;;;;22.40;44.10;;;;;;1570065;75;1441;-56
2023/07/27 11:37:26;;;;;;;;;;;22.50;44.20;;;;;;1573358;74;1313;-55
2023/07/27 11:39:28;;;;;;;;;;;22.40;44.10;;;;;;1573371;75;1316;-55
2023/07/27 11:41:31;;;;;;;;;;;22.40;44.10;;;;;;1573734;75;1496;-57
2023/07/27 11:43:33;;;;;;;;;;;22.50;44.30;;;;;;1570390;75;1457;-55
2023/07/27 11:45:35;;;;;;;;;;;22.50;44.20;;;;;;1575856;74;1465;-55
2023/07/27 11:47:40;;;;;;;;;;;22.40;44.10;;;;;;1569138;75;2074;-56
2023/07/27 11:49:42;;;;;;;;;;;22.50;44.20;;;;;;1568057;75;1728;-56
2023/07/27 11:51:44;;;;;;;;;;;22.50;44.20;;;;;;1572927;74;1169;-58
2023/07/27 11:53:46;;;;;;;;;;;22.50;44.20;;;;;;1569149;75;1386;-57
2023/07/27 11:55:48;;;;;;;;;;;22.50;44.20;;;;;;1572077;75;1514;-57
2023/07/27 11:57:50;;;;;;;;;;;22.50;44.20;;;;;;1574679;75;1327;-57
2023/07/27 12:00:00;;;;;;;;;;;22.50;44.20;;;;;;1571208;75;1337;-59
2023/07/27 12:02:02;;;;;;;;;;;22.50;44.30;;;;;;1572261;75;1453;-58
2023/07/27 12:04:05;;;;;;;;;;;22.50;44.30;;;;;;1567513;75;1478;-58
2023/07/27 12:06:07;;;;;;;;;;;22.50;44.30;;;;;;1571825;75;1292;-58